createdAt,value
2022-09-11T04:30:39.540Z,56.69
2022-09-11T04:36:05.107Z,56.87
2022-09-11T04:41:27.617Z,56.82
2022-09-11T04:46:49.745Z,57.16
2022-09-11T04:52:12.154Z,56.86
2022-09-11T04:57:34.176Z,57.16
2022-09-11T05:02:56.012Z,56.99
2022-09-11T05:08:18.981Z,56.99
2022-09-11T05:13:42.803Z,56.95
2022-09-11T05:19:04.476Z,56.99
2022-09-11T05:24:27.214Z,57.46
2022-09-11T05:29:50.615Z,57.75
2022-09-11T05:35:11.868Z,57.65
2022-09-11T05:40:32.985Z,57.50
2022-09-11T05:45:56.432Z,57.86
2022-09-11T05:51:21.650Z,57.66
2022-09-11T05:56:43.830Z,57.34
2022-09-11T06:02:11.619Z,57.46
2022-09-11T06:07:42.151Z,57.39
2022-09-11T06:13:03.575Z,57.54
2022-09-11T06:18:27.005Z,57.36
2022-09-11T06:23:53.327Z,57.66
2022-09-11T06:29:16.104Z,56.84
2022-09-11T06:34:41.286Z,56.94
2022-09-11T06:40:05.507Z,56.87
2022-09-11T06:45:26.685Z,56.75
2022-09-11T06:50:47.875Z,56.96
2022-09-11T06:56:12.899Z,57.21
2022-09-11T07:01:35.491Z,57.44
2022-09-11T07:06:57.190Z,57.31
2022-09-11T07:12:23.879Z,57.38
2022-09-11T07:17:45.065Z,57.36
2022-09-11T07:23:08.803Z,57.71
2022-09-11T07:28:31.050Z,57.39
2022-09-11T07:33:53.235Z,57.32
2022-09-11T07:39:16.392Z,57.58
2022-09-11T07:44:57.336Z,57.56
2022-09-11T07:50:24.244Z,57.36
2022-09-11T07:55:45.845Z,56.24
2022-09-11T08:01:15.798Z,56.10
2022-09-11T08:06:38.361Z,55.63
2022-09-11T08:12:05.278Z,55.42
2022-09-11T08:17:29.562Z,55.33
2022-09-11T08:22:50.438Z,55.37
2022-09-11T08:28:13.231Z,55.35
2022-09-11T08:33:34.279Z,55.41
2022-09-11T08:38:58.552Z,55.64
2022-09-11T08:44:21.218Z,55.67
2022-09-11T08:49:47.988Z,55.81
2022-09-11T08:55:13.555Z,55.58
2022-09-11T09:00:48.171Z,55.15
2022-09-11T09:06:58.139Z,54.52
2022-09-11T09:12:51.470Z,54.62
2022-09-11T09:18:34.020Z,54.42
2022-09-11T09:23:58.855Z,54.04
2022-09-11T09:29:30.507Z,53.93
2022-09-11T09:34:57.617Z,52.98
2022-09-11T09:40:19.155Z,51.53
2022-09-11T09:46:11.506Z,50.92
2022-09-11T09:51:32.307Z,50.15
2022-09-11T09:57:02.342Z,49.93
2022-09-11T10:02:43.426Z,50.83
2022-09-11T10:08:06.816Z,50.43
2022-09-11T10:13:31.538Z,50.31
2022-09-11T10:18:54.263Z,50.92
2022-09-11T10:24:18.089Z,51.17
2022-09-11T10:29:50.395Z,50.52
2022-09-11T10:35:11.625Z,50.31
2022-09-11T10:40:32.683Z,50.53
2022-09-11T10:46:24.904Z,48.61
2022-09-11T10:52:07.987Z,43.63
2022-09-11T10:57:42.862Z,35.81
2022-09-11T11:03:17.097Z,35.34
2022-09-11T11:08:37.834Z,26.34
2022-09-11T11:14:31.072Z,22.00
2022-09-11T11:20:04.725Z,28.51
2022-09-11T11:25:34.731Z,34.21
2022-09-11T11:31:22.146Z,36.19
2022-09-11T11:36:53.987Z,40.50
2022-09-11T11:42:23.320Z,42.21
2022-09-11T11:47:47.288Z,43.14
2022-09-11T11:53:08.452Z,44.63
2022-09-11T11:58:47.308Z,46.17
2022-09-11T12:04:19.890Z,47.74
2022-09-11T12:09:46.984Z,48.93
2022-09-11T12:15:10.358Z,49.95
2022-09-11T12:20:43.412Z,50.59
2022-09-11T12:26:10.501Z,51.18
2022-09-11T12:31:51.033Z,51.27
2022-09-11T12:37:27.075Z,52.03
2022-09-11T12:42:57.669Z,52.14
2022-09-11T12:48:22.477Z,52.14
2022-09-11T12:53:47.065Z,52.62
2022-09-11T12:59:10.991Z,53.44
2022-09-11T13:04:33.185Z,53.82
2022-09-11T13:09:57.176Z,54.21
2022-09-11T13:15:34.542Z,54.01
2022-09-11T13:21:12.301Z,54.28
2022-09-11T13:26:33.412Z,54.39
2022-09-11T13:31:57.576Z,54.63
2022-09-11T13:37:33.895Z,55.24
2022-09-11T13:42:56.148Z,55.49
2022-09-11T13:48:22.860Z,55.78
2022-09-11T13:53:46.655Z,55.56
2022-09-11T13:59:49.035Z,55.61
2022-09-11T14:05:15.380Z,55.35
2022-09-11T14:10:42.030Z,54.90
2022-09-11T14:16:07.484Z,54.83
2022-09-11T14:21:35.656Z,54.54
2022-09-11T14:26:58.299Z,54.37
2022-09-11T14:32:40.052Z,54.36
2022-09-11T14:38:00.876Z,53.68
2022-09-11T14:43:26.513Z,54.34
2022-09-11T14:48:47.411Z,53.89
2022-09-11T14:54:15.327Z,54.07
2022-09-11T14:59:36.118Z,54.25
2022-09-11T15:04:58.349Z,54.56
2022-09-11T15:10:20.293Z,54.90
2022-09-11T15:15:41.294Z,54.70
2022-09-11T15:21:02.195Z,55.08
2022-09-11T15:26:23.076Z,55.12
2022-09-11T15:31:44.283Z,55.28
2022-09-11T15:37:05.451Z,55.45
2022-09-11T15:42:26.520Z,55.20
2022-09-11T15:47:47.804Z,55.43
2022-09-11T15:53:09.663Z,55.28
2022-09-11T15:58:32.551Z,55.57
2022-09-11T16:03:55.672Z,55.56
2022-09-11T16:09:22.930Z,56.20
2022-09-11T16:14:44.147Z,56.58
2022-09-11T16:20:05.839Z,57.05
2022-09-11T16:25:27.955Z,57.10
2022-09-11T16:30:55.069Z,57.02
2022-09-11T16:36:18.771Z,56.76
2022-09-11T16:41:40.608Z,56.57
2022-09-11T16:47:01.730Z,56.52
2022-09-11T16:52:22.554Z,56.92
2022-09-11T16:57:44.438Z,57.56
2022-09-11T17:03:05.328Z,57.80
2022-09-11T17:08:26.613Z,58.23
2022-09-11T17:13:48.781Z,58.90
2022-09-11T17:19:10.514Z,59.38
2022-09-11T17:24:32.115Z,59.64
2022-09-11T17:29:53.216Z,60.04
2022-09-11T17:35:14.788Z,60.07
2022-09-11T17:40:36.488Z,60.35
2022-09-11T17:46:08.897Z,60.29
2022-09-11T17:51:30.104Z,60.05
2022-09-11T17:56:51.490Z,60.36
2022-09-11T18:02:14.298Z,61.06
2022-09-11T18:07:35.283Z,61.30
2022-09-11T18:12:56.279Z,61.06
2022-09-11T18:18:17.391Z,61.20
2022-09-11T18:23:44.626Z,61.93
2022-09-11T18:29:10.009Z,62.05
2022-09-11T18:34:31.192Z,61.93
2022-09-11T18:39:52.046Z,61.81
2022-09-11T18:45:12.646Z,62.45
2022-09-11T18:50:35.862Z,62.39
2022-09-11T18:56:02.205Z,62.05
2022-09-11T19:01:25.674Z,62.35
2022-09-11T19:06:46.620Z,62.61
2022-09-11T19:12:08.079Z,62.65
2022-09-11T19:17:28.856Z,62.53
2022-09-11T19:22:49.619Z,63.11
2022-09-11T19:28:11.897Z,63.03
2022-09-11T19:33:34.166Z,62.87
2022-09-11T19:38:56.098Z,62.82
2022-09-11T19:44:17.502Z,63.02
2022-09-11T19:49:38.367Z,63.27
2022-09-11T19:55:00.324Z,63.82
2022-09-11T20:00:22.529Z,63.42
2022-09-11T20:05:44.705Z,63.66
2022-09-11T20:11:07.603Z,63.41
2022-09-11T20:16:30.560Z,63.22
2022-09-11T20:21:51.761Z,63.04
2022-09-11T20:27:12.447Z,63.66
2022-09-11T20:32:36.611Z,63.26
2022-09-11T20:37:57.412Z,63.02
2022-09-11T20:43:18.189Z,63.40
2022-09-11T20:48:38.988Z,63.77
2022-09-11T20:54:00.596Z,63.35
2022-09-11T20:59:21.648Z,63.74
2022-09-11T21:04:42.319Z,64.16
2022-09-11T21:10:03.702Z,63.42
2022-09-11T21:15:24.679Z,63.15
2022-09-11T21:20:53.731Z,63.73
2022-09-11T21:26:16.940Z,63.62
2022-09-11T21:31:38.033Z,63.49
2022-09-11T21:36:58.609Z,63.88
2022-09-11T21:42:19.597Z,63.69
2022-09-11T21:47:40.591Z,64.22
2022-09-11T21:53:01.373Z,63.41
2022-09-11T21:58:22.748Z,64.32
